sensor_id;sensor_type;location;lat;lon;timestamp;P1;durP1;ratioP1;P2;durP2;ratioP2
43801;SDS011;29429;51.074;13.764;2023-04-24T00:02:24;4.38;;;2.80;;
43801;SDS011;29429;51.074;13.764;2023-04-24T00:04:52;4.40;;;3.33;;
43801;SDS011;29429;51.074;13.764;2023-04-24T00:07:19;3.42;;;3.05;;
43801;SDS011;29429;51.074;13.764;2023-04-24T00:09:46;4.30;;;3.30;;
43801;SDS011;29429;51.074;13.764;2023-04-24T00:12:13;4.78;;;2.92;;
43801;SDS011;29429;51.074;13.764;2023-04-24T00:14:40;3.83;;;2.88;;
43801;SDS011;29429;51.074;13.764;2023-04-24T00:17:07;4.80;;;2.97;;
43801;SDS011;29429;51.074;13.764;2023-04-24T00:19:34;3.88;;;3.10;;
43801;SDS011;29429;51.074;13.764;2023-04-24T00:22:02;4.32;;;2.72;;
43801;SDS011;29429;51.074;13.764;2023-04-24T00:24:29;4.05;;;2.80;;
43801;SDS011;29429;51.074;13.764;2023-04-24T00:26:57;3.42;;;2.70;;
43801;SDS011;29429;51.074;13.764;2023-04-24T00:29:24;5.38;;;3.40;;
43801;SDS011;29429;51.074;13.764;2023-04-24T00:31:51;5.25;;;3.42;;
43801;SDS011;29429;51.074;13.764;2023-04-24T00:34:18;4.72;;;3.17;;
43801;SDS011;29429;51.074;13.764;2023-04-24T00:36:45;4.15;;;2.63;;
43801;SDS011;29429;51.074;13.764;2023-04-24T00:39:12;4.43;;;3.08;;
43801;SDS011;29429;51.074;13.764;2023-04-24T00:41:39;5.07;;;3.10;;
43801;SDS011;29429;51.074;13.764;2023-04-24T00:44:06;4.47;;;3.20;;
43801;SDS011;29429;51.074;13.764;2023-04-24T00:46:34;4.18;;;3.17;;
43801;SDS011;29429;51.074;13.764;2023-04-24T00:49:02;5.07;;;3.20;;
43801;SDS011;29429;51.074;13.764;2023-04-24T00:51:29;6.03;;;3.72;;
43801;SDS011;29429;51.074;13.764;2023-04-24T00:53:57;4.35;;;3.60;;
43801;SDS011;29429;51.074;13.764;2023-04-24T00:56:23;3.60;;;3.13;;
43801;SDS011;29429;51.074;13.764;2023-04-24T00:58:51;4.65;;;3.10;;
43801;SDS011;29429;51.074;13.764;2023-04-24T01:01:21;4.32;;;3.17;;
43801;SDS011;29429;51.074;13.764;2023-04-24T01:03:50;4.50;;;3.10;;
43801;SDS011;29429;51.074;13.764;2023-04-24T01:06:19;5.20;;;3.00;;
43801;SDS011;29429;51.074;13.764;2023-04-24T01:08:47;3.60;;;2.90;;
43801;SDS011;29429;51.074;13.764;2023-04-24T01:11:16;7.47;;;3.90;;
43801;SDS011;29429;51.074;13.764;2023-04-24T01:13:44;4.40;;;3.70;;
43801;SDS011;29429;51.074;13.764;2023-04-24T01:16:12;4.60;;;3.50;;
43801;SDS011;29429;51.074;13.764;2023-04-24T01:18:40;4.70;;;3.50;;
43801;SDS011;29429;51.074;13.764;2023-04-24T01:21:10;4.03;;;3.15;;
43801;SDS011;29429;51.074;13.764;2023-04-24T01:23:41;3.50;;;2.70;;
43801;SDS011;29429;51.074;13.764;2023-04-24T01:26:09;4.10;;;3.25;;
43801;SDS011;29429;51.074;13.764;2023-04-24T01:28:37;5.30;;;3.17;;
43801;SDS011;29429;51.074;13.764;2023-04-24T01:31:05;3.83;;;3.17;;
43801;SDS011;29429;51.074;13.764;2023-04-24T01:33:32;3.65;;;2.72;;
43801;SDS011;29429;51.074;13.764;2023-04-24T01:36:00;4.07;;;2.83;;
43801;SDS011;29429;51.074;13.764;2023-04-24T01:38:27;4.90;;;3.47;;
43801;SDS011;29429;51.074;13.764;2023-04-24T01:40:54;4.20;;;2.80;;
43801;SDS011;29429;51.074;13.764;2023-04-24T01:43:23;6.05;;;3.75;;
43801;SDS011;29429;51.074;13.764;2023-04-24T01:45:51;5.38;;;4.18;;
43801;SDS011;29429;51.074;13.764;2023-04-24T01:48:18;4.13;;;3.25;;
43801;SDS011;29429;51.074;13.764;2023-04-24T01:50:45;4.68;;;3.17;;
43801;SDS011;29429;51.074;13.764;2023-04-24T01:53:12;4.00;;;3.53;;
43801;SDS011;29429;51.074;13.764;2023-04-24T01:55:39;5.38;;;3.40;;
43801;SDS011;29429;51.074;13.764;2023-04-24T01:58:07;4.55;;;3.30;;
43801;SDS011;29429;51.074;13.764;2023-04-24T02:00:34;5.32;;;3.60;;
43801;SDS011;29429;51.074;13.764;2023-04-24T02:03:01;4.72;;;3.83;;
43801;SDS011;29429;51.074;13.764;2023-04-24T02:05:28;5.28;;;4.07;;
43801;SDS011;29429;51.074;13.764;2023-04-24T02:07:55;4.95;;;3.70;;
43801;SDS011;29429;51.074;13.764;2023-04-24T02:10:22;5.43;;;3.83;;
43801;SDS011;29429;51.074;13.764;2023-04-24T02:12:51;5.47;;;3.70;;
43801;SDS011;29429;51.074;13.764;2023-04-24T02:15:21;4.05;;;3.38;;
43801;SDS011;29429;51.074;13.764;2023-04-24T02:17:48;4.07;;;3.28;;
43801;SDS011;29429;51.074;13.764;2023-04-24T02:20:15;3.97;;;3.55;;
43801;SDS011;29429;51.074;13.764;2023-04-24T02:22:43;4.15;;;3.10;;
43801;SDS011;29429;51.074;13.764;2023-04-24T02:25:10;4.45;;;3.40;;
43801;SDS011;29429;51.074;13.764;2023-04-24T02:27:37;4.95;;;3.50;;
43801;SDS011;29429;51.074;13.764;2023-04-24T02:30:05;4.57;;;3.47;;
43801;SDS011;29429;51.074;13.764;2023-04-24T02:32:33;3.88;;;3.35;;
43801;SDS011;29429;51.074;13.764;2023-04-24T02:35:00;5.55;;;3.65;;
43801;SDS011;29429;51.074;13.764;2023-04-24T02:37:27;6.90;;;3.67;;
43801;SDS011;29429;51.074;13.764;2023-04-24T02:39:54;4.18;;;3.45;;
43801;SDS011;29429;51.074;13.764;2023-04-24T02:42:21;3.38;;;2.72;;
43801;SDS011;29429;51.074;13.764;2023-04-24T02:44:48;4.50;;;3.42;;
43801;SDS011;29429;51.074;13.764;2023-04-24T02:47:17;3.70;;;2.90;;
43801;SDS011;29429;51.074;13.764;2023-04-24T02:49:44;3.08;;;2.70;;
43801;SDS011;29429;51.074;13.764;2023-04-24T02:52:12;3.92;;;2.78;;
43801;SDS011;29429;51.074;13.764;2023-04-24T02:54:39;5.18;;;3.08;;
43801;SDS011;29429;51.074;13.764;2023-04-24T02:57:06;5.18;;;3.80;;
43801;SDS011;29429;51.074;13.764;2023-04-24T02:59:33;4.38;;;3.80;;
43801;SDS011;29429;51.074;13.764;2023-04-24T03:02:00;5.22;;;3.45;;
43801;SDS011;29429;51.074;13.764;2023-04-24T03:04:27;5.18;;;3.50;;
43801;SDS011;29429;51.074;13.764;2023-04-24T03:06:54;4.60;;;3.78;;
43801;SDS011;29429;51.074;13.764;2023-04-24T03:09:21;5.65;;;3.60;;
43801;SDS011;29429;51.074;13.764;2023-04-24T03:11:48;4.22;;;3.13;;
43801;SDS011;29429;51.074;13.764;2023-04-24T03:14:16;3.75;;;3.05;;
43801;SDS011;29429;51.074;13.764;2023-04-24T03:16:43;4.55;;;3.53;;
43801;SDS011;29429;51.074;13.764;2023-04-24T03:19:09;4.50;;;3.25;;
43801;SDS011;29429;51.074;13.764;2023-04-24T03:21:45;4.97;;;3.85;;
43801;SDS011;29429;51.074;13.764;2023-04-24T03:24:12;5.70;;;3.90;;
43801;SDS011;29429;51.074;13.764;2023-04-24T03:26:40;5.72;;;4.63;;
43801;SDS011;29429;51.074;13.764;2023-04-24T03:29:31;6.90;;;4.32;;
43801;SDS011;29429;51.074;13.764;2023-04-24T03:31:58;5.70;;;4.07;;
43801;SDS011;29429;51.074;13.764;2023-04-24T03:34:26;5.82;;;3.67;;
43801;SDS011;29429;51.074;13.764;2023-04-24T03:36:53;6.30;;;4.28;;
43801;SDS011;29429;51.074;13.764;2023-04-24T03:39:20;5.80;;;3.83;;
43801;SDS011;29429;51.074;13.764;2023-04-24T03:41:52;4.82;;;3.85;;
43801;SDS011;29429;51.074;13.764;2023-04-24T03:44:25;5.90;;;4.18;;
43801;SDS011;29429;51.074;13.764;2023-04-24T03:46:52;6.95;;;4.00;;
43801;SDS011;29429;51.074;13.764;2023-04-24T03:49:21;5.18;;;3.95;;
43801;SDS011;29429;51.074;13.764;2023-04-24T03:51:48;6.07;;;3.90;;
43801;SDS011;29429;51.074;13.764;2023-04-24T03:54:24;4.85;;;3.47;;
43801;SDS011;29429;51.074;13.764;2023-04-24T03:56:52;4.88;;;3.80;;
43801;SDS011;29429;51.074;13.764;2023-04-24T03:59:20;5.55;;;3.38;;
43801;SDS011;29429;51.074;13.764;2023-04-24T04:01:57;4.60;;;3.67;;
43801;SDS011;29429;51.074;13.764;2023-04-24T04:04:24;5.35;;;3.78;;
43801;SDS011;29429;51.074;13.764;2023-04-24T04:06:52;4.85;;;3.88;;
43801;SDS011;29429;51.074;13.764;2023-04-24T04:09:19;5.47;;;3.83;;
43801;SDS011;29429;51.074;13.764;2023-04-24T04:11:46;4.53;;;3.72;;
43801;SDS011;29429;51.074;13.764;2023-04-24T04:14:13;4.60;;;3.58;;
43801;SDS011;29429;51.074;13.764;2023-04-24T04:16:44;5.50;;;3.50;;
43801;SDS011;29429;51.074;13.764;2023-04-24T04:19:12;4.63;;;3.78;;
43801;SDS011;29429;51.074;13.764;2023-04-24T04:21:39;10.00;;;4.40;;
43801;SDS011;29429;51.074;13.764;2023-04-24T04:24:19;6.10;;;3.95;;
43801;SDS011;29429;51.074;13.764;2023-04-24T04:26:51;4.97;;;3.65;;
43801;SDS011;29429;51.074;13.764;2023-04-24T04:29:24;4.95;;;2.92;;
43801;SDS011;29429;51.074;13.764;2023-04-24T04:31:52;3.85;;;2.97;;
43801;SDS011;29429;51.074;13.764;2023-04-24T04:34:20;4.43;;;3.33;;
43801;SDS011;29429;51.074;13.764;2023-04-24T04:36:48;3.70;;;3.15;;
43801;SDS011;29429;51.074;13.764;2023-04-24T04:39:28;4.50;;;2.45;;
43801;SDS011;29429;51.074;13.764;2023-04-24T04:42:02;3.67;;;2.67;;
43801;SDS011;29429;51.074;13.764;2023-04-24T04:44:36;3.70;;;2.42;;
43801;SDS011;29429;51.074;13.764;2023-04-24T04:47:06;3.55;;;2.20;;
43801;SDS011;29429;51.074;13.764;2023-04-24T04:49:35;3.65;;;1.90;;
43801;SDS011;29429;51.074;13.764;2023-04-24T04:52:05;2.78;;;1.88;;
43801;SDS011;29429;51.074;13.764;2023-04-24T04:54:33;2.50;;;1.75;;
43801;SDS011;29429;51.074;13.764;2023-04-24T04:57:00;2.08;;;1.80;;
43801;SDS011;29429;51.074;13.764;2023-04-24T04:59:30;2.53;;;1.70;;
43801;SDS011;29429;51.074;13.764;2023-04-24T05:02:02;2.25;;;1.67;;
43801;SDS011;29429;51.074;13.764;2023-04-24T05:04:29;2.38;;;1.40;;
43801;SDS011;29429;51.074;13.764;2023-04-24T05:06:57;2.42;;;1.70;;
43801;SDS011;29429;51.074;13.764;2023-04-24T05:09:27;2.67;;;1.50;;
43801;SDS011;29429;51.074;13.764;2023-04-24T05:12:00;1.92;;;1.45;;
43801;SDS011;29429;51.074;13.764;2023-04-24T05:14:32;2.75;;;1.70;;
43801;SDS011;29429;51.074;13.764;2023-04-24T05:16:59;1.88;;;1.33;;
43801;SDS011;29429;51.074;13.764;2023-04-24T05:19:28;1.83;;;1.10;;
43801;SDS011;29429;51.074;13.764;2023-04-24T05:21:55;3.03;;;1.33;;
43801;SDS011;29429;51.074;13.764;2023-04-24T05:24:22;2.25;;;1.40;;
43801;SDS011;29429;51.074;13.764;2023-04-24T05:27:08;4.13;;;1.40;;
43801;SDS011;29429;51.074;13.764;2023-04-24T05:29:38;2.20;;;1.00;;
43801;SDS011;29429;51.074;13.764;2023-04-24T05:32:07;1.60;;;1.08;;
43801;SDS011;29429;51.074;13.764;2023-04-24T05:34:34;1.83;;;1.20;;
43801;SDS011;29429;51.074;13.764;2023-04-24T05:37:01;1.50;;;1.20;;
43801;SDS011;29429;51.074;13.764;2023-04-24T05:39:29;2.13;;;0.98;;
43801;SDS011;29429;51.074;13.764;2023-04-24T05:41:58;4.38;;;1.27;;
43801;SDS011;29429;51.074;13.764;2023-04-24T05:44:25;2.03;;;1.08;;
43801;SDS011;29429;51.074;13.764;2023-04-24T05:46:52;1.50;;;1.05;;
43801;SDS011;29429;51.074;13.764;2023-04-24T05:49:22;1.77;;;0.98;;
43801;SDS011;29429;51.074;13.764;2023-04-24T05:51:50;2.45;;;1.00;;
43801;SDS011;29429;51.074;13.764;2023-04-24T05:54:17;2.67;;;1.20;;
43801;SDS011;29429;51.074;13.764;2023-04-24T05:56:44;2.65;;;1.20;;
43801;SDS011;29429;51.074;13.764;2023-04-24T05:59:19;1.70;;;0.80;;
43801;SDS011;29429;51.074;13.764;2023-04-24T06:01:47;1.80;;;0.98;;
43801;SDS011;29429;51.074;13.764;2023-04-24T06:04:17;0.93;;;0.80;;
43801;SDS011;29429;51.074;13.764;2023-04-24T06:06:45;2.28;;;0.90;;
43801;SDS011;29429;51.074;13.764;2023-04-24T06:09:12;3.03;;;1.20;;
43801;SDS011;29429;51.074;13.764;2023-04-24T06:11:39;1.40;;;0.80;;
43801;SDS011;29429;51.074;13.764;2023-04-24T06:14:09;3.65;;;1.20;;
43801;SDS011;29429;51.074;13.764;2023-04-24T06:16:37;3.30;;;1.10;;
43801;SDS011;29429;51.074;13.764;2023-04-24T06:19:16;1.95;;;1.00;;
43801;SDS011;29429;51.074;13.764;2023-04-24T06:21:43;1.63;;;0.93;;
43801;SDS011;29429;51.074;13.764;2023-04-24T06:24:13;2.53;;;1.05;;
43801;SDS011;29429;51.074;13.764;2023-04-24T06:26:42;1.15;;;0.95;;
43801;SDS011;29429;51.074;13.764;2023-04-24T06:29:09;2.25;;;1.05;;
43801;SDS011;29429;51.074;13.764;2023-04-24T06:31:36;2.47;;;1.35;;
43801;SDS011;29429;51.074;13.764;2023-04-24T06:34:04;2.63;;;1.20;;
43801;SDS011;29429;51.074;13.764;2023-04-24T06:36:31;2.47;;;1.10;;
43801;SDS011;29429;51.074;13.764;2023-04-24T06:39:00;4.32;;;1.45;;
43801;SDS011;29429;51.074;13.764;2023-04-24T06:41:28;3.10;;;1.15;;
43801;SDS011;29429;51.074;13.764;2023-04-24T06:43:56;1.75;;;0.70;;
43801;SDS011;29429;51.074;13.764;2023-04-24T06:46:23;1.80;;;0.50;;
43801;SDS011;29429;51.074;13.764;2023-04-24T06:48:53;1.00;;;0.50;;
43801;SDS011;29429;51.074;13.764;2023-04-24T06:51:22;0.73;;;0.52;;
43801;SDS011;29429;51.074;13.764;2023-04-24T06:53:53;1.85;;;0.85;;
43801;SDS011;29429;51.074;13.764;2023-04-24T06:56:22;1.95;;;0.68;;
43801;SDS011;29429;51.074;13.764;2023-04-24T06:58:50;0.68;;;0.40;;
43801;SDS011;29429;51.074;13.764;2023-04-24T07:01:17;1.85;;;0.60;;
43801;SDS011;29429;51.074;13.764;2023-04-24T07:03:45;0.75;;;0.52;;
43801;SDS011;29429;51.074;13.764;2023-04-24T07:06:12;1.65;;;0.60;;
43801;SDS011;29429;51.074;13.764;2023-04-24T07:08:43;1.40;;;0.50;;
43801;SDS011;29429;51.074;13.764;2023-04-24T07:11:11;0.93;;;0.50;;
43801;SDS011;29429;51.074;13.764;2023-04-24T07:13:38;0.88;;;0.40;;
43801;SDS011;29429;51.074;13.764;2023-04-24T07:16:08;3.22;;;0.77;;
43801;SDS011;29429;51.074;13.764;2023-04-24T07:18:36;1.60;;;0.60;;
43801;SDS011;29429;51.074;13.764;2023-04-24T07:21:05;1.27;;;0.70;;
43801;SDS011;29429;51.074;13.764;2023-04-24T07:23:33;2.58;;;0.50;;
43801;SDS011;29429;51.074;13.764;2023-04-24T07:26:01;0.70;;;0.43;;
43801;SDS011;29429;51.074;13.764;2023-04-24T07:28:28;1.08;;;0.50;;
43801;SDS011;29429;51.074;13.764;2023-04-24T07:30:58;2.47;;;0.55;;
43801;SDS011;29429;51.074;13.764;2023-04-24T07:33:26;1.48;;;0.63;;
43801;SDS011;29429;51.074;13.764;2023-04-24T07:35:54;1.42;;;0.50;;
43801;SDS011;29429;51.074;13.764;2023-04-24T07:38:21;0.88;;;0.45;;
43801;SDS011;29429;51.074;13.764;2023-04-24T07:40:49;3.70;;;0.60;;
43801;SDS011;29429;51.074;13.764;2023-04-24T07:43:16;1.13;;;0.43;;
43801;SDS011;29429;51.074;13.764;2023-04-24T07:45:44;1.25;;;0.40;;
43801;SDS011;29429;51.074;13.764;2023-04-24T07:48:11;0.70;;;0.40;;
43801;SDS011;29429;51.074;13.764;2023-04-24T07:50:42;1.75;;;0.40;;
43801;SDS011;29429;51.074;13.764;2023-04-24T07:53:10;1.23;;;0.50;;
43801;SDS011;29429;51.074;13.764;2023-04-24T07:55:37;0.82;;;0.40;;
43801;SDS011;29429;51.074;13.764;2023-04-24T07:58:05;1.10;;;0.50;;
43801;SDS011;29429;51.074;13.764;2023-04-24T08:00:32;1.52;;;0.50;;
43801;SDS011;29429;51.074;13.764;2023-04-24T08:02:59;1.02;;;0.32;;
43801;SDS011;29429;51.074;13.764;2023-04-24T08:05:27;1.25;;;0.65;;
43801;SDS011;29429;51.074;13.764;2023-04-24T08:07:55;1.23;;;0.55;;
43801;SDS011;29429;51.074;13.764;2023-04-24T08:10:29;1.33;;;0.57;;
43801;SDS011;29429;51.074;13.764;2023-04-24T08:12:57;1.70;;;0.60;;
43801;SDS011;29429;51.074;13.764;2023-04-24T08:15:27;1.52;;;0.70;;
43801;SDS011;29429;51.074;13.764;2023-04-24T08:18:03;2.05;;;0.55;;
43801;SDS011;29429;51.074;13.764;2023-04-24T08:20:43;1.17;;;0.40;;
43801;SDS011;29429;51.074;13.764;2023-04-24T08:23:11;0.80;;;0.30;;
43801;SDS011;29429;51.074;13.764;2023-04-24T08:25:39;1.52;;;0.55;;
43801;SDS011;29429;51.074;13.764;2023-04-24T08:28:07;0.93;;;0.40;;
43801;SDS011;29429;51.074;13.764;2023-04-24T08:30:37;1.60;;;0.50;;
43801;SDS011;29429;51.074;13.764;2023-04-24T08:33:05;1.02;;;0.60;;
43801;SDS011;29429;51.074;13.764;2023-04-24T08:35:33;0.90;;;0.43;;
43801;SDS011;29429;51.074;13.764;2023-04-24T08:38:01;2.85;;;0.50;;
43801;SDS011;29429;51.074;13.764;2023-04-24T08:40:28;2.15;;;0.45;;
43801;SDS011;29429;51.074;13.764;2023-04-24T08:42:57;3.65;;;0.80;;
43801;SDS011;29429;51.074;13.764;2023-04-24T08:45:26;2.00;;;0.50;;
43801;SDS011;29429;51.074;13.764;2023-04-24T08:47:54;2.13;;;0.88;;
43801;SDS011;29429;51.074;13.764;2023-04-24T08:50:22;0.95;;;0.43;;
43801;SDS011;29429;51.074;13.764;2023-04-24T08:52:50;1.00;;;0.60;;
43801;SDS011;29429;51.074;13.764;2023-04-24T08:55:20;1.95;;;0.80;;
43801;SDS011;29429;51.074;13.764;2023-04-24T08:57:51;1.95;;;0.50;;
43801;SDS011;29429;51.074;13.764;2023-04-24T09:00:19;1.90;;;0.45;;
43801;SDS011;29429;51.074;13.764;2023-04-24T09:02:49;2.50;;;1.00;;
43801;SDS011;29429;51.074;13.764;2023-04-24T09:05:17;4.68;;;1.52;;
43801;SDS011;29429;51.074;13.764;2023-04-24T09:07:49;4.25;;;0.90;;
43801;SDS011;29429;51.074;13.764;2023-04-24T09:10:21;2.63;;;0.70;;
43801;SDS011;29429;51.074;13.764;2023-04-24T09:12:51;2.90;;;0.50;;
43801;SDS011;29429;51.074;13.764;2023-04-24T09:15:19;1.17;;;0.47;;
43801;SDS011;29429;51.074;13.764;2023-04-24T09:17:47;1.60;;;0.55;;
43801;SDS011;29429;51.074;13.764;2023-04-24T09:20:14;0.93;;;0.30;;
43801;SDS011;29429;51.074;13.764;2023-04-24T09:22:42;1.17;;;0.43;;
43801;SDS011;29429;51.074;13.764;2023-04-24T09:25:11;2.25;;;0.40;;
43801;SDS011;29429;51.074;13.764;2023-04-24T09:27:44;0.60;;;0.30;;
43801;SDS011;29429;51.074;13.764;2023-04-24T09:30:12;1.98;;;0.60;;
43801;SDS011;29429;51.074;13.764;2023-04-24T09:32:40;1.88;;;0.40;;
43801;SDS011;29429;51.074;13.764;2023-04-24T09:35:12;1.05;;;0.57;;
43801;SDS011;29429;51.074;13.764;2023-04-24T09:37:42;1.58;;;0.57;;
43801;SDS011;29429;51.074;13.764;2023-04-24T09:40:11;2.95;;;0.60;;
43801;SDS011;29429;51.074;13.764;2023-04-24T09:42:39;2.83;;;0.40;;
43801;SDS011;29429;51.074;13.764;2023-04-24T09:45:11;2.90;;;0.70;;
43801;SDS011;29429;51.074;13.764;2023-04-24T09:47:41;4.15;;;0.70;;
43801;SDS011;29429;51.074;13.764;2023-04-24T09:50:10;1.45;;;0.75;;
43801;SDS011;29429;51.074;13.764;2023-04-24T09:52:42;2.90;;;0.50;;
43801;SDS011;29429;51.074;13.764;2023-04-24T09:55:21;3.67;;;1.65;;
43801;SDS011;29429;51.074;13.764;2023-04-24T09:57:50;1.27;;;0.60;;
43801;SDS011;29429;51.074;13.764;2023-04-24T10:00:27;0.90;;;0.45;;
43801;SDS011;29429;51.074;13.764;2023-04-24T10:02:59;0.90;;;0.40;;
43801;SDS011;29429;51.074;13.764;2023-04-24T10:08:08;1.88;;;0.50;;
43801;SDS011;29429;51.074;13.764;2023-04-24T10:10:38;1.23;;;0.47;;
43801;SDS011;29429;51.074;13.764;2023-04-24T10:13:09;1.50;;;0.47;;
43801;SDS011;29429;51.074;13.764;2023-04-24T10:15:41;0.65;;;0.40;;
43801;SDS011;29429;51.074;13.764;2023-04-24T10:18:10;1.95;;;0.40;;
43801;SDS011;29429;51.074;13.764;2023-04-24T10:20:38;1.65;;;0.40;;
43801;SDS011;29429;51.074;13.764;2023-04-24T10:23:06;1.95;;;0.93;;
43801;SDS011;29429;51.074;13.764;2023-04-24T10:25:34;1.60;;;0.45;;
43801;SDS011;29429;51.074;13.764;2023-04-24T10:28:03;0.80;;;0.30;;
43801;SDS011;29429;51.074;13.764;2023-04-24T10:30:32;1.48;;;0.50;;
43801;SDS011;29429;51.074;13.764;2023-04-24T10:33:07;1.38;;;0.40;;
43801;SDS011;29429;51.074;13.764;2023-04-24T10:35:39;0.93;;;0.40;;
43801;SDS011;29429;51.074;13.764;2023-04-24T10:38:13;6.00;;;0.50;;
43801;SDS011;29429;51.074;13.764;2023-04-24T10:40:43;1.40;;;0.30;;
43801;SDS011;29429;51.074;13.764;2023-04-24T10:43:13;1.00;;;0.47;;
43801;SDS011;29429;51.074;13.764;2023-04-24T10:46:01;1.20;;;0.47;;
43801;SDS011;29429;51.074;13.764;2023-04-24T10:48:33;2.60;;;0.43;;
43801;SDS011;29429;51.074;13.764;2023-04-24T10:51:01;2.92;;;0.40;;
43801;SDS011;29429;51.074;13.764;2023-04-24T10:53:29;1.05;;;0.38;;
43801;SDS011;29429;51.074;13.764;2023-04-24T10:55:58;1.73;;;0.50;;
43801;SDS011;29429;51.074;13.764;2023-04-24T10:59:29;1.23;;;0.32;;
43801;SDS011;29429;51.074;13.764;2023-04-24T11:02:42;0.30;;;0.20;;
43801;SDS011;29429;51.074;13.764;2023-04-24T11:05:18;1.23;;;0.52;;
43801;SDS011;29429;51.074;13.764;2023-04-24T11:10:46;0.45;;;0.35;;
43801;SDS011;29429;51.074;13.764;2023-04-24T11:16:39;1.60;;;0.50;;
43801;SDS011;29429;51.074;13.764;2023-04-24T11:19:26;0.30;;;0.30;;
43801;SDS011;29429;51.074;13.764;2023-04-24T11:32:18;1.85;;;0.77;;
43801;SDS011;29429;51.074;13.764;2023-04-24T11:34:58;0.70;;;0.32;;
43801;SDS011;29429;51.074;13.764;2023-04-24T11:37:41;1.80;;;0.50;;
43801;SDS011;29429;51.074;13.764;2023-04-24T11:40:19;1.02;;;0.45;;
43801;SDS011;29429;51.074;13.764;2023-04-24T11:42:50;1.75;;;0.35;;
43801;SDS011;29429;51.074;13.764;2023-04-24T11:45:25;1.10;;;0.50;;
43801;SDS011;29429;51.074;13.764;2023-04-24T11:47:54;1.75;;;0.45;;
43801;SDS011;29429;51.074;13.764;2023-04-24T11:50:22;0.60;;;0.38;;
43801;SDS011;29429;51.074;13.764;2023-04-24T11:52:56;2.85;;;0.43;;
43801;SDS011;29429;51.074;13.764;2023-04-24T11:55:25;1.33;;;0.38;;
43801;SDS011;29429;51.074;13.764;2023-04-24T11:57:57;0.55;;;0.32;;
43801;SDS011;29429;51.074;13.764;2023-04-24T12:00:30;2.30;;;0.85;;
43801;SDS011;29429;51.074;13.764;2023-04-24T12:03:07;1.27;;;0.40;;
43801;SDS011;29429;51.074;13.764;2023-04-24T12:05:38;1.13;;;0.30;;
43801;SDS011;29429;51.074;13.764;2023-04-24T12:08:06;1.25;;;0.50;;
43801;SDS011;29429;51.074;13.764;2023-04-24T12:10:34;1.33;;;0.60;;
43801;SDS011;29429;51.074;13.764;2023-04-24T12:13:02;1.35;;;0.45;;
43801;SDS011;29429;51.074;13.764;2023-04-24T12:15:29;0.85;;;0.50;;
43801;SDS011;29429;51.074;13.764;2023-04-24T12:17:58;2.90;;;0.70;;
43801;SDS011;29429;51.074;13.764;2023-04-24T12:20:30;0.93;;;0.32;;
43801;SDS011;29429;51.074;13.764;2023-04-24T12:22:59;1.10;;;0.32;;
43801;SDS011;29429;51.074;13.764;2023-04-24T12:25:31;4.00;;;0.70;;
43801;SDS011;29429;51.074;13.764;2023-04-24T12:30:30;1.20;;;0.50;;
43801;SDS011;29429;51.074;13.764;2023-04-24T12:32:59;1.63;;;0.60;;
43801;SDS011;29429;51.074;13.764;2023-04-24T12:35:29;1.45;;;0.60;;
43801;SDS011;29429;51.074;13.764;2023-04-24T12:38:09;0.98;;;0.55;;
43801;SDS011;29429;51.074;13.764;2023-04-24T12:40:39;0.95;;;0.50;;
43801;SDS011;29429;51.074;13.764;2023-04-24T12:43:14;0.68;;;0.60;;
43801;SDS011;29429;51.074;13.764;2023-04-24T12:45:47;3.28;;;0.60;;
43801;SDS011;29429;51.074;13.764;2023-04-24T12:48:14;1.10;;;0.55;;
43801;SDS011;29429;51.074;13.764;2023-04-24T12:50:43;2.03;;;0.70;;
43801;SDS011;29429;51.074;13.764;2023-04-24T12:53:12;2.53;;;0.70;;
43801;SDS011;29429;51.074;13.764;2023-04-24T12:55:40;2.35;;;0.50;;
43801;SDS011;29429;51.074;13.764;2023-04-24T12:58:08;2.65;;;1.30;;
43801;SDS011;29429;51.074;13.764;2023-04-24T13:00:42;1.45;;;0.60;;
43801;SDS011;29429;51.074;13.764;2023-04-24T13:03:12;2.22;;;0.73;;
43801;SDS011;29429;51.074;13.764;2023-04-24T13:05:40;2.25;;;0.60;;
43801;SDS011;29429;51.074;13.764;2023-04-24T13:08:08;3.20;;;0.60;;
43801;SDS011;29429;51.074;13.764;2023-04-24T13:10:36;1.95;;;0.70;;
43801;SDS011;29429;51.074;13.764;2023-04-24T13:13:03;1.45;;;0.52;;
43801;SDS011;29429;51.074;13.764;2023-04-24T13:15:31;2.63;;;0.60;;
43801;SDS011;29429;51.074;13.764;2023-04-24T13:17:58;1.35;;;0.47;;
43801;SDS011;29429;51.074;13.764;2023-04-24T13:20:26;1.92;;;0.57;;
43801;SDS011;29429;51.074;13.764;2023-04-24T13:22:54;0.60;;;0.40;;
43801;SDS011;29429;51.074;13.764;2023-04-24T13:25:21;4.63;;;1.00;;
43801;SDS011;29429;51.074;13.764;2023-04-24T13:27:51;1.83;;;0.55;;
43801;SDS011;29429;51.074;13.764;2023-04-24T13:30:19;0.70;;;0.40;;
43801;SDS011;29429;51.074;13.764;2023-04-24T13:32:46;1.02;;;0.60;;
43801;SDS011;29429;51.074;13.764;2023-04-24T13:35:13;1.75;;;0.70;;
43801;SDS011;29429;51.074;13.764;2023-04-24T13:37:41;1.60;;;0.73;;
43801;SDS011;29429;51.074;13.764;2023-04-24T13:40:08;2.85;;;0.65;;
43801;SDS011;29429;51.074;13.764;2023-04-24T13:42:36;2.03;;;0.60;;
43801;SDS011;29429;51.074;13.764;2023-04-24T13:45:04;3.03;;;0.80;;
43801;SDS011;29429;51.074;13.764;2023-04-24T13:47:50;2.10;;;0.68;;
43801;SDS011;29429;51.074;13.764;2023-04-24T13:50:18;2.17;;;0.60;;
43801;SDS011;29429;51.074;13.764;2023-04-24T13:52:46;1.58;;;0.70;;
43801;SDS011;29429;51.074;13.764;2023-04-24T13:55:13;2.50;;;0.50;;
43801;SDS011;29429;51.074;13.764;2023-04-24T13:57:41;2.20;;;0.70;;
43801;SDS011;29429;51.074;13.764;2023-04-24T14:00:08;2.00;;;0.60;;
43801;SDS011;29429;51.074;13.764;2023-04-24T14:02:40;2.50;;;0.55;;
43801;SDS011;29429;51.074;13.764;2023-04-24T14:05:07;3.88;;;0.77;;
43801;SDS011;29429;51.074;13.764;2023-04-24T14:07:37;0.80;;;0.80;;
43801;SDS011;29429;51.074;13.764;2023-04-24T14:10:05;2.40;;;0.50;;
43801;SDS011;29429;51.074;13.764;2023-04-24T14:12:33;2.75;;;0.60;;
43801;SDS011;29429;51.074;13.764;2023-04-24T14:15:00;2.58;;;0.68;;
43801;SDS011;29429;51.074;13.764;2023-04-24T14:17:28;1.27;;;0.60;;
43801;SDS011;29429;51.074;13.764;2023-04-24T14:19:56;1.73;;;0.50;;
43801;SDS011;29429;51.074;13.764;2023-04-24T14:22:26;1.25;;;0.60;;
43801;SDS011;29429;51.074;13.764;2023-04-24T14:24:53;1.35;;;0.50;;
43801;SDS011;29429;51.074;13.764;2023-04-24T14:27:20;1.55;;;0.60;;
43801;SDS011;29429;51.074;13.764;2023-04-24T14:29:48;2.30;;;0.70;;
43801;SDS011;29429;51.074;13.764;2023-04-24T14:32:15;1.77;;;0.50;;
43801;SDS011;29429;51.074;13.764;2023-04-24T14:34:46;1.67;;;0.60;;
43801;SDS011;29429;51.074;13.764;2023-04-24T14:37:14;3.00;;;0.68;;
43801;SDS011;29429;51.074;13.764;2023-04-24T14:39:42;0.93;;;0.70;;
43801;SDS011;29429;51.074;13.764;2023-04-24T14:42:31;2.28;;;0.70;;
43801;SDS011;29429;51.074;13.764;2023-04-24T14:45:02;2.65;;;0.80;;
43801;SDS011;29429;51.074;13.764;2023-04-24T14:47:29;1.42;;;0.80;;
43801;SDS011;29429;51.074;13.764;2023-04-24T14:49:57;0.95;;;0.75;;
43801;SDS011;29429;51.074;13.764;2023-04-24T14:52:25;3.13;;;0.60;;
43801;SDS011;29429;51.074;13.764;2023-04-24T14:54:53;1.83;;;0.80;;
43801;SDS011;29429;51.074;13.764;2023-04-24T14:57:20;1.30;;;0.90;;
43801;SDS011;29429;51.074;13.764;2023-04-24T14:59:48;1.20;;;0.70;;
43801;SDS011;29429;51.074;13.764;2023-04-24T15:02:15;2.10;;;0.95;;
43801;SDS011;29429;51.074;13.764;2023-04-24T15:04:47;1.52;;;0.65;;
43801;SDS011;29429;51.074;13.764;2023-04-24T15:07:15;1.52;;;0.80;;
43801;SDS011;29429;51.074;13.764;2023-04-24T15:09:42;2.70;;;0.90;;